Data for 11/19/2013

Time Sea-Level Adjusted Pressure Absolute Pressure Temperature Relative Humidity Dew Point Precipitation   
(mb) (inHg) (mb) (inHg) (C) (F) (%) (C) (F) (mm) (in)
00:05 1012 29.88 841 24.83 2.4 36.3 50 -7.1 19.2 0 0
00:10 1012 29.88 841 24.83 2.3 36.1 52 -6.6 20.2 0 0
00:15 1012 29.88 841 24.83 2 35.7 52 -6.7 19.9 0 0
00:20 1012 29.88 841 24.83 2.3 36.1 49 -7.2 19 0 0
00:25 1012 29.88 841 24.83 2.7 36.8 47 -7.4 18.6 0 0
00:30 1012 29.88 841 24.83 3.2 37.7 46 -7.4 18.6 0 0
00:35 1012 29.88 841 24.83 3.6 38.4 44 -7.4 18.6 0 0
00:40 1012 29.88 841 24.83 3.6 38.4 46 -7.1 19.2 0 0
00:45 1012 29.88 841 24.83 3.3 37.9 46 -7.2 19.1 0 0
00:50 1012 29.88 841 24.83 3.1 37.6 51 -6.1 21.1 0 0
00:55 1012 29.88 841 24.83 2.8 37.1 49 -6.7 19.9 0 0
01:00 1011 29.85 841 24.83 3 37.5 48 -6.8 19.7 0 0
01:05 1011 29.85 841 24.83 2.9 37.2 51 -6.3 20.7 0 0
01:10 1011 29.85 841 24.83 2.7 36.8 51 -6.6 20.1 0 0
01:15 1011 29.85 840 24.81 2.8 37.1 46 -7.6 18.4 0 0
01:20 1011 29.85 840 24.81 3.5 38.3 43 -7.9 17.8 0 0
01:25 1011 29.85 840 24.81 4 39.2 43 -7.5 18.5 0 0
01:30 1011 29.85 840 24.81 3.4 38.2 52 -5.5 22.2 0 0
01:35 1011 29.85 840 24.81 2.6 36.7 53 -6 21.3 0 0
01:40 1011 29.85 840 24.81 2.3 36.1 54 -6 21.2 0 0
01:45 1011 29.85 840 24.81 2.5 36.4 52 -6.4 20.6 0 0
01:50 1011 29.85 840 24.81 2.4 36.4 56 -5.6 22 0 0
01:55 1011 29.85 840 24.81 2.1 35.8 57 -5.5 22.1 0 0
02:00 1011 29.85 840 24.81 2.1 35.7 59 -5.1 22.9 0 0
02:05 1011 29.85 840 24.81 1.8 35.3 57 -5.8 21.6 0 0
02:10 1011 29.85 840 24.81 2.2 36 52 -6.7 20 0 0
02:15 1011 29.85 840 24.81 2.9 37.3 48 -7 19.4 0 0
02:20 1011 29.85 840 24.81 3.2 37.8 48 -6.7 20 0 0
02:25 1011 29.85 840 24.81 3.6 38.4 45 -7.4 18.7 0 0
02:30 1011 29.85 840 24.81 4.1 39.3 46 -6.4 20.4 0 0
02:35 1011 29.85 840 24.81 3.7 38.6 47 -6.6 20.2 0 0
02:40 1010 29.83 840 24.81 3.4 38 51 -5.9 21.3 0 0
02:45 1010 29.83 840 24.81 3.4 38 45 -7.6 18.4 0 0
02:50 1010 29.83 840 24.81 3.7 38.7 53 -4.9 23.2 0 0
02:55 1010 29.83 840 24.81 2.6 36.6 57 -5 23 0 0
03:00 1010 29.83 839 24.78 2.3 36.1 57 -5.3 22.4 0 0
03:05 1010 29.83 839 24.78 2.1 35.7 59 -5.2 22.6 0 0
03:10 1010 29.83 839 24.78 1.8 35.3 58 -5.5 22.1 0 0
03:15 1010 29.83 839 24.78 2.6 36.6 49 -7.1 19.2 0 0
03:20 1010 29.83 839 24.78 3.4 38.2 56 -4.4 24 0 0
03:25 1010 29.83 839 24.78 3.6 38.5 44 -7.5 18.4 0 0
03:30 1010 29.83 840 24.81 5.2 41.3 46 -5.4 22.3 0 0
03:35 1010 29.83 840 24.81 4.2 39.5 50 -5.2 22.6 0 0
03:40 1010 29.83 840 24.81 4.1 39.3 52 -5 23 0 0
03:45 1010 29.83 839 24.78 3.8 38.8 51 -5.3 22.4 0 0
03:50 1010 29.83 839 24.78 3.2 37.8 57 -4.6 23.8 0 0
03:55 1010 29.83 839 24.78 3 37.3 56 -5 23 0 0
04:00 1010 29.83 839 24.78 3.1 37.5 56 -4.9 23.1 0 0
04:05 1010 29.83 839 24.78 2.8 37 58 -4.6 23.7 0 0
04:10 1010 29.83 839 24.78 2.9 37.2 55 -5.3 22.4 0 0
04:15 1010 29.83 839 24.78 3.6 38.5 51 -5.6 21.9 0 0
04:20 1010 29.83 839 24.78 4 39.2 54 -4.5 23.9 0 0
04:25 1010 29.83 839 24.78 3.2 37.7 57 -4.5 23.9 0 0
04:30 1010 29.83 839 24.78 3.3 37.9 50 -6.3 20.7 0 0
04:35 1010 29.83 839 24.78 4.1 39.4 55 -4 24.8 0 0
04:40 1010 29.83 839 24.78 3.1 37.6 58 -4.3 24.3 0 0
04:45 1010 29.83 839 24.78 3.2 37.7 55 -5 23.1 0 0
04:50 1010 29.83 839 24.78 3.8 38.9 50 -5.6 22 0 0
04:55 1010 29.83 839 24.78 4.1 39.5 50 -5.5 22.2 0 0
05:00 1010 29.83 839 24.78 4.2 39.6 48 -5.8 21.5 0 0
05:05 1010 29.83 839 24.78 4.4 39.9 50 -5.3 22.5 0 0
05:10 1010 29.83 839 24.78 4.4 40 47 -5.8 21.6 0 0
05:15 1010 29.83 839 24.78 4.4 39.9 50 -5.1 22.8 0 0
05:20 1010 29.83 839 24.78 3.9 39.1 53 -4.8 23.4 0 0
05:25 1010 29.83 839 24.78 3.4 38.1 53 -5.2 22.6 0 0
05:30 1010 29.83 839 24.78 3.1 37.5 55 -5.2 22.7 0 0
05:35 1010 29.83 839 24.78 3 37.3 56 -5.1 22.8 0 0
05:40 1010 29.83 839 24.78 2.6 36.7 57 -5 23 0 0
05:45 1010 29.83 839 24.78 1.9 35.3 60 -5 22.9 0 0
05:50 1010 29.83 839 24.78 1.3 34.3 63 -4.9 23.2 0 0
05:55 1010 29.83 839 24.78 1 33.7 66 -4.8 23.4 0 0
06:00 1010 29.83 839 24.78 1.1 33.9 63 -5.2 22.6 0 0
06:05 1010 29.83 839 24.78 1.8 35.3 60 -5.1 22.8 0 0
06:10 1010 29.83 839 24.78 1.6 34.9 64 -4.5 23.9 0 0
06:15 1010 29.83 839 24.78 1.2 34.2 61 -5.4 22.3 0 0
06:20 1010 29.83 839 24.78 2.1 35.7 58 -5.3 22.5 0 0
06:25 1010 29.83 839 24.78 2.5 36.6 57 -5.2 22.7 0 0
06:30 1010 29.83 839 24.78 3.1 37.5 56 -4.9 23.1 0 0
06:35 1010 29.83 839 24.78 4.2 39.6 53 -4.5 23.9 0 0
06:40 1010 29.83 839 24.78 5 40.9 52 -4.1 24.7 0 0
06:45 1010 29.83 839 24.78 5.5 41.9 52 -3.7 25.4 0 0
06:50 1010 29.83 839 24.78 5.6 42 50 -3.9 25 0 0
06:55 1010 29.83 839 24.78 6.2 43.2 51 -3.2 26.2 0 0
07:00 1010 29.83 839 24.78 5.2 41.3 56 -3 26.6 0 0
07:05 1010 29.83 839 24.78 4.6 40.2 52 -4.3 24.2 0 0
07:10 1010 29.83 839 24.78 5.2 41.4 54 -3.3 26 0 0
07:15 1010 29.83 839 24.78 4.7 40.5 56 -3.3 26 0 0
07:20 1010 29.83 839 24.78 4.6 40.2 54 -4.1 24.7 0 0
07:25 1010 29.83 839 24.78 4.5 40.2 56 -3.5 25.7 0 0
07:30 1010 29.83 839 24.78 4.3 39.7 55 -4 24.8 0 0
07:35 1010 29.83 839 24.78 4.4 39.9 55 -3.8 25.2 0 0
07:40 1010 29.83 839 24.78 4.3 39.7 55 -4.1 24.6 0 0
07:45 1010 29.83 839 24.78 4.8 40.6 53 -4 24.7 0 0
07:50 1010 29.83 839 24.78 5.4 41.7 51 -3.8 25.1 0 0
07:55 1010 29.83 839 24.78 5.6 42.1 49 -4.1 24.6 0 0
08:00 1010 29.83 840 24.81 5.8 42.5 52 -3.2 26.2 0 0
08:05 1010 29.83 839 24.78 5.4 41.7 53 -3.3 26 0 0
08:10 1010 29.83 840 24.81 5.5 41.9 48 -4.6 23.7 0 0
08:15 1010 29.83 840 24.81 6.3 43.4 46 -4.4 24.1 0 0
08:20 1010 29.83 840 24.81 6.5 43.7 48 -3.9 25.1 0 0
08:25 1010 29.83 840 24.81 6.4 43.5 47 -4 24.8 0 0
08:30 1010 29.83 840 24.81 6.5 43.8 47 -4.1 24.7 0 0
08:35 1010 29.83 840 24.81 6.5 43.7 50 -3.2 26.2 0 0
08:40 1010 29.83 840 24.81 5.8 42.4 51 -3.7 25.3 0 0
08:45 1010 29.83 839 24.78 5.3 41.5 53 -3.5 25.6 0 0
08:50 1010 29.83 839 24.78 4.9 40.9 55 -3.4 25.8 0 0
08:55 1010 29.83 839 24.78 5 41 53 -3.7 25.3 0 0
09:00 1010 29.83 839 24.78 5.3 41.6 55 -3 26.6 0 0
09:05 1010 29.83 839 24.78 5.2 41.4 53 -3.5 25.7 0 0
09:10 1010 29.83 839 24.78 5.6 42.1 50 -4 24.8 0 0
09:15 1010 29.83 839 24.78 6.8 44.3 46 -4 24.8 0 0
09:20 1010 29.83 839 24.78 8 46.5 41 -4.4 24.1 0 0
09:25 1010 29.83 839 24.78 8.9 48 39 -4.2 24.4 0 0
09:30 1010 29.83 839 24.78 9.5 49.1 37 -4.5 23.8 0 0
09:35 1010 29.83 839 24.78 9.4 48.8 38 -4.4 24.2 0 0
09:40 1010 29.83 839 24.78 9.2 48.5 38 -4.4 24 0 0
09:45 1010 29.83 839 24.78 9 48.2 37 -4.7 23.5 0 0
09:50 1010 29.83 839 24.78 9.2 48.5 37 -4.6 23.8 0 0
09:55 1010 29.83 839 24.78 9.8 49.7 36 -4.5 23.9 0 0
10:00 1010 29.83 839 24.78 9.6 49.2 35 -5 22.9 0 0
10:05 1010 29.83 840 24.81 9.6 49.2 37 -4.5 23.8 0 0
10:10 1010 29.83 840 24.81 9.6 49.3 37 -4.4 24 0 0
10:15 1010 29.83 840 24.81 9.5 49.1 36 -4.8 23.4 0 0
10:20 1010 29.83 839 24.78 9.3 48.8 36 -4.9 23.1 0 0
10:25 1010 29.83 839 24.78 9.2 48.6 37 -4.8 23.4 0 0
10:30 1010 29.83 839 24.78 9.1 48.3 39 -4.3 24.3 0 0
10:35 1010 29.83 839 24.78 9 48.1 37 -4.9 23.1 0 0
10:40 1010 29.83 839 24.78 9.1 48.3 36 -5.1 22.8 0 0
10:45 1010 29.83 839 24.78 9.3 48.7 37 -4.7 23.6 0 0
10:50 1010 29.83 839 24.78 9.5 49 36 -4.7 23.5 0 0
10:55 1010 29.83 839 24.78 10.1 50.3 33 -5.3 22.5 0 0
11:00 1010 29.83 839 24.78 11.3 52.3 32 -4.9 23.1 0 0
11:05 1010 29.83 839 24.78 11.6 52.8 33 -4 24.9 0 0
11:10 1010 29.83 839 24.78 11.8 53.2 31 -4.8 23.3 0 0
11:15 1010 29.83 839 24.78 11.8 53.2 31 -4.6 23.6 0 0
11:20 1009 29.8 839 24.78 11.8 53.2 32 -4.5 23.9 0 0
11:25 1009 29.8 839 24.78 11.9 53.4 30 -4.9 23.2 0 0
11:30 1009 29.8 838 24.75 12 53.6 30 -4.9 23.3 0 0
11:35 1009 29.8 838 24.75 11.7 53.1 31 -4.6 23.6 0 0
11:40 1009 29.8 839 24.78 11.4 52.5 32 -4.8 23.4 0 0
11:45 1009 29.8 839 24.78 11.4 52.5 31 -4.9 23.1 0 0
11:50 1009 29.8 838 24.75 11.3 52.3 32 -4.6 23.6 0 0
11:55 1009 29.8 839 24.78 10.7 51.3 34 -4.3 24.3 0 0
12:00 1009 29.8 838 24.75 10.2 50.4 37 -3.7 25.3 0 0
12:05 1009 29.8 838 24.75 10 49.9 39 -3.4 25.9 0 0
12:10 1009 29.8 838 24.75 10 49.9 35 -4.8 23.4 0 0
12:15 1009 29.8 838 24.75 10 49.9 38 -3.8 25.2 0 0
12:20 1009 29.8 838 24.75 9.9 49.8 37 -4 24.9 0 0
12:25 1009 29.8 838 24.75 9.9 49.8 38 -3.8 25.1 0 0
12:30 1009 29.8 838 24.75 10 50 36 -4.3 24.2 0 0
12:35 1009 29.8 838 24.75 10.8 51.4 32 -5.2 22.7 0 0
12:40 1009 29.8 838 24.75 10.9 51.6 34 -4.4 24 0 0
12:45 1009 29.8 838 24.75 10.6 51.1 34 -4.4 24.1 0 0
12:50 1009 29.8 838 24.75 10.5 50.8 36 -3.8 25.2 0 0
12:55 1009 29.8 838 24.75 10.3 50.6 35 -4.3 24.3 0 0
13:00 1009 29.8 838 24.75 10.4 50.7 36 -4 24.8 0 0
13:05 1009 29.8 838 24.75 10.3 50.5 35 -4.3 24.2 0 0
13:10 1009 29.8 838 24.75 10.2 50.3 37 -3.8 25.2 0 0
13:15 1009 29.8 838 24.75 10.2 50.3 36 -4.3 24.3 0 0
13:20 1009 29.8 838 24.75 10.1 50.2 36 -4.3 24.2 0 0
13:25 1009 29.8 838 24.75 10 50 37 -4 24.8 0 0
13:30 1009 29.8 838 24.75 9.9 49.9 35 -4.6 23.7 0 0
13:35 1009 29.8 838 24.75 9.7 49.4 34 -5.2 22.6 0 0
13:40 1009 29.8 838 24.75 9.5 49.2 35 -5.3 22.5 0 0
13:45 1009 29.8 838 24.75 9.5 49.2 35 -5.2 22.7 0 0
13:50 1009 29.8 838 24.75 9.6 49.3 35 -5.3 22.5 0 0
13:55 1009 29.8 838 24.75 9.7 49.4 34 -5.5 22.1 0 0
14:00 1009 29.8 838 24.75 9.8 49.7 33 -5.5 22.1 0 0
14:05 1009 29.8 838 24.75 10.1 50.2 35 -4.8 23.4 0 0
14:10 1009 29.8 838 24.75 10.5 51 31 -5.8 21.5 0 0
14:15 1009 29.8 838 24.75 11.7 53 30 -5.4 22.3 0 0
14:20 1009 29.8 838 24.75 11.9 53.4 30 -5.2 22.7 0 0
14:25 1009 29.8 838 24.75 12.2 54 29 -5.1 22.9 0 0
14:30 1009 29.8 838 24.75 11.8 53.3 30 -5.3 22.4 0 0
14:35 1009 29.8 838 24.75 12 53.6 31 -4.6 23.8 0 0
14:40 1009 29.8 838 24.75 12 53.5 31 -4.8 23.3 0 0
14:45 1009 29.8 838 24.75 12 53.6 30 -5 23 0 0
14:50 1009 29.8 838 24.75 12 53.6 29 -5.3 22.5 0 0
14:55 1009 29.8 838 24.75 11.9 53.3 31 -4.8 23.4 0 0
15:00 1009 29.8 838 24.75 11.7 53.1 30 -5.2 22.6 0 0
15:05 1009 29.8 838 24.75 11.6 52.8 30 -5.2 22.6 0 0
15:10 1009 29.8 838 24.75 11.4 52.4 32 -4.6 23.8 0 0
15:15 1008 29.77 838 24.75 11.4 52.4 31 -5.2 22.7 0 0
15:20 1008 29.77 838 24.75 11.2 52.2 32 -4.9 23.2 0 0
15:25 1008 29.77 838 24.75 11 51.8 32 -5 23 0 0
15:30 1008 29.77 837 24.72 10.6 51.2 33 -5 23 0 0
15:35 1008 29.77 837 24.72 10.5 50.9 33 -5 22.9 0 0
15:40 1008 29.77 838 24.75 10.3 50.5 34 -5 22.9 0 0
15:45 1008 29.77 838 24.75 10.2 50.3 35 -4.5 23.9 0 0
15:50 1008 29.77 838 24.75 10.1 50.1 34 -5.2 22.6 0 0
15:55 1008 29.77 837 24.72 10 49.9 34 -5.2 22.7 0 0
16:00 1008 29.77 837 24.72 9.8 49.6 35 -4.8 23.4 0 0
16:05 1008 29.77 837 24.72 9.3 48.8 36 -4.8 23.4 0 0
16:10 1008 29.77 838 24.75 9.1 48.3 38 -4.6 23.6 0 0
16:15 1008 29.77 838 24.75 8.9 47.9 39 -4.4 24.1 0 0
16:20 1008 29.77 838 24.75 8.6 47.5 37 -5.1 22.8 0 0
16:25 1009 29.8 838 24.75 8.8 47.8 39 -4.6 23.8 0 0
16:30 1009 29.8 838 24.75 8.1 46.5 39 -4.9 23.2 0 0
16:35 1009 29.8 838 24.75 7.6 45.8 42 -4.6 23.7 0 0
16:40 1009 29.8 838 24.75 7.4 45.3 41 -5.1 22.8 0 0
16:45 1009 29.8 838 24.75 7.7 45.8 40 -5 23 0 0
16:50 1009 29.8 838 24.75 7.5 45.5 41 -4.9 23.3 0 0
16:55 1008 29.77 838 24.75 7.3 45.1 42 -4.9 23.2 0 0
17:00 1008 29.77 838 24.75 7.1 44.8 42 -4.9 23.1 0 0
17:05 1009 29.8 838 24.75 7 44.6 42 -5 23 0 0
17:10 1009 29.8 838 24.75 6.9 44.4 42 -5.3 22.5 0 0
17:15 1009 29.8 838 24.75 7.2 44.9 42 -4.7 23.5 0 0
17:20 1009 29.8 838 24.75 7.2 44.9 42 -4.9 23.2 0 0
17:25 1009 29.8 838 24.75 7.2 44.9 43 -4.7 23.5 0 0
17:30 1009 29.8 838 24.75 6.9 44.4 44 -4.5 23.9 0 0
17:35 1009 29.8 838 24.75 6 42.8 48 -4.2 24.5 0 0
17:40 1009 29.8 838 24.75 5 40.9 48 -5 22.9 0 0
17:45 1009 29.8 838 24.75 5.7 42.2 47 -4.9 23.2 0 0
17:50 1009 29.8 838 24.75 6.6 43.8 43 -5.2 22.6 0 0
17:55 1009 29.8 838 24.75 6.8 44.2 44 -4.6 23.7 0 0
18:00 1009 29.8 838 24.75 6.3 43.3 46 -4.5 23.9 0 0
18:05 1009 29.8 838 24.75 5.6 42.1 48 -4.5 23.9 0 0
18:10 1009 29.8 838 24.75 5.2 41.3 49 -4.8 23.4 0 0
18:15 1009 29.8 838 24.75 4.6 40.2 50 -4.9 23.1 0 0
18:20 1009 29.8 838 24.75 4.1 39.3 51 -5.1 22.8 0 0
18:25 1009 29.8 838 24.75 4.3 39.7 49 -5.5 22.1 0 0
18:30 1009 29.8 838 24.75 4.1 39.5 51 -5 23 0 0
18:35 1009 29.8 838 24.75 5 41 47 -5.4 22.2 0 0
18:40 1008 29.77 838 24.75 6.2 43.2 45 -4.8 23.3 0 0
18:45 1008 29.77 838 24.75 6.5 43.7 43 -5 23 0 0
18:50 1009 29.8 838 24.75 6.7 44 44 -4.7 23.5 0 0
18:55 1009 29.8 838 24.75 6.5 43.7 44 -4.8 23.3 0 0
19:00 1009 29.8 838 24.75 6.3 43.4 45 -4.8 23.3 0 0
19:05 1009 29.8 838 24.75 6.2 43.1 45 -4.8 23.4 0 0
19:10 1009 29.8 838 24.75 6.1 42.9 45 -5.1 22.8 0 0
19:15 1009 29.8 838 24.75 6.6 43.9 43 -5 22.9 0 0
19:20 1009 29.8 838 24.75 7 44.6 42 -5.1 22.8 0 0
19:25 1009 29.8 838 24.75 7.2 44.9 42 -4.9 23.2 0 0
19:30 1009 29.8 838 24.75 7.1 44.7 42 -5 23 0 0
19:35 1009 29.8 838 24.75 7.1 44.8 42 -4.8 23.3 0 0
19:40 1009 29.8 838 24.75 6.9 44.4 43 -4.8 23.4 0 0
19:45 1009 29.8 838 24.75 6.8 44.2 44 -4.7 23.5 0 0
19:50 1009 29.8 838 24.75 6.5 43.7 45 -4.5 23.9 0 0
19:55 1009 29.8 838 24.75 6.1 42.9 46 -4.7 23.5 0 0
20:00 1009 29.8 838 24.75 5.6 42 50 -4.1 24.7 0 0
20:05 1009 29.8 838 24.75 5 41 50 -4.6 23.8 0 0
20:10 1009 29.8 838 24.75 5.1 41.2 50 -4.4 24 0 0
20:15 1009 29.8 838 24.75 5.2 41.4 49 -4.5 23.9 0 0
20:20 1009 29.8 838 24.75 5.5 41.8 49 -4.3 24.2 0 0
20:25 1009 29.8 838 24.75 5.7 42.2 49 -4.3 24.3 0 0
20:30 1009 29.8 838 24.75 5.8 42.5 49 -4 24.7 0 0
20:35 1009 29.8 838 24.75 5.7 42.3 48 -4.4 24.1 0 0
20:40 1009 29.8 838 24.75 6.3 43.3 46 -4.5 23.9 0 0
20:45 1009 29.8 838 24.75 6.7 44.1 45 -4.5 24 0 0
20:50 1009 29.8 838 24.75 6.8 44.3 45 -4.2 24.5 0 0
20:55 1009 29.8 838 24.75 6.6 44 46 -4 24.7 0 0
21:00 1009 29.8 838 24.75 6.5 43.8 45 -4.4 24.1 0 0
21:05 1009 29.8 838 24.75 7 44.6 44 -4.5 24 0 0
21:10 1009 29.8 838 24.75 7.3 45.1 42 -4.7 23.5 0 0
21:15 1009 29.8 838 24.75 7.4 45.3 43 -4.3 24.2 0 0
21:20 1009 29.8 838 24.75 7.3 45.1 44 -4.3 24.3 0 0
21:25 1009 29.8 838 24.75 7.2 44.9 43 -4.5 23.9 0 0
21:30 1009 29.8 838 24.75 7.4 45.3 42 -4.5 23.8 0 0
21:35 1009 29.8 838 24.75 7.5 45.5 44 -4 24.8 0 0
21:40 1009 29.8 838 24.75 7.6 45.7 42 -4.4 24.2 0 0
21:45 1009 29.8 838 24.75 7.7 45.9 40 -4.9 23.2 0 0
21:50 1009 29.8 838 24.75 8 46.4 41 -4.6 23.7 0 0
21:55 1009 29.8 838 24.75 8 46.4 41 -4.3 24.3 0 0
22:00 1009 29.8 838 24.75 7.8 46 43 -4.1 24.6 0 0
22:05 1009 29.8 838 24.75 7.7 45.8 43 -4.2 24.4 0 0
22:10 1009 29.8 838 24.75 7.7 45.8 43 -4 24.8 0 0
22:15 1009 29.8 838 24.75 7.4 45.3 44 -4.1 24.6 0 0
22:20 1009 29.8 838 24.75 7.2 44.9 44 -4.3 24.3 0 0
22:25 1009 29.8 838 24.75 7 44.7 44 -4.3 24.2 0 0
22:30 1009 29.8 838 24.75 7.1 44.8 43 -4.7 23.5 0 0
22:35 1009 29.8 838 24.75 7.3 45.1 43 -4.5 24 0 0
22:40 1009 29.8 838 24.75 7.3 45.1 43 -4.4 24 0 0
22:45 1009 29.8 838 24.75 7.5 45.4 43 -4.3 24.2 0 0
22:50 1009 29.8 838 24.75 7.5 45.6 43 -4.3 24.3 0 0
22:55 1009 29.8 838 24.75 7.7 45.9 42 -4.4 24 0 0
23:00 1009 29.8 838 24.75 7.9 46.2 42 -4.2 24.5 0 0
23:05 1009 29.8 838 24.75 7.9 46.3 41 -4.4 24 0 0
23:10 1009 29.8 838 24.75 8 46.5 40 -4.9 23.2 0 0
23:15 1009 29.8 838 24.75 8.1 46.6 42 -4.1 24.7 0 0
23:20 1009 29.8 838 24.75 7.7 45.9 43 -4 24.9 0 0
23:25 1009 29.8 838 24.75 7.6 45.7 43 -4.3 24.2 0 0
23:30 1009 29.8 838 24.75 7.7 45.9 43 -3.9 24.9 0 0
23:35 1009 29.8 838 24.75 7.5 45.5 43 -4.1 24.5 0 0
23:40 1009 29.8 838 24.75 7.5 45.4 43 -4.4 24.1 0 0
23:45 1009 29.8 838 24.75 7.5 45.5 43 -4.2 24.5 0 0
23:50 1009 29.8 839 24.78 7.6 45.6 42 -4.5 23.9 0 0
23:55 1009 29.8 839 24.78 7.6 45.7 43 -4.2 24.4 0 0
24:00 1009 29.8 839 24.78 7.5 45.6 43 -4.1 24.7 0 0